Time;durP1;ratioP1;P1;durP2;ratioP2;P2;SDS_P1;SDS_P2;PMS_P1;PMS_P2;Temp;Humidity;BMP_temperature;BMP_pressure;BME280_temperature;BME280_humidity;BME280_pressure;Samples;Min_cycle;Max_cycle;Signal;HPM_P1;HPM_P2
2023/01/13 00:05:11;;;;;;;0.50;0.20;;;2.20;99.90;;;;;;20907385;28;20048;-60
2023/01/13 00:15:13;;;;;;;0.45;0.22;;;2.00;99.90;;;;;;20906646;28;20036;-60
2023/01/13 00:25:15;;;;;;;0.77;0.20;;;1.90;99.90;;;;;;20906134;28;20473;-60
2023/01/13 00:35:16;;;;;;;1.00;0.40;;;1.90;99.90;;;;;;20904493;28;20025;-60
2023/01/13 00:45:18;;;;;;;0.30;0.00;;;2.20;99.90;;;;;;20906426;28;20045;-60
2023/01/13 00:55:19;;;;;;;0.08;0.00;;;2.60;99.90;;;;;;20987018;28;20371;-59
2023/01/13 01:05:21;;;;;;;0.10;0.00;;;5.00;93.90;;;;;;20986516;28;20066;-60
2023/01/13 01:15:22;;;;;;;0.63;0.20;;;5.30;92.60;;;;;;20975477;28;20033;-60
2023/01/13 01:25:24;;;;;;;1.25;0.20;;;5.20;99.90;;;;;;20903739;28;20033;-60
2023/01/13 01:35:26;;;;;;;0.63;0.25;;;4.00;99.90;;;;;;20902824;28;20029;-60
2023/01/13 01:45:30;;;;;;;1.02;0.30;;;3.00;99.90;;;;;;20889424;28;20054;-60
2023/01/13 01:55:35;;;;;;;1.20;0.30;;;2.60;99.90;;;;;;20949285;28;20104;-60
2023/01/13 02:05:37;;;;;;;0.50;0.30;;;2.30;99.90;;;;;;20963148;28;20036;-60
2023/01/13 02:15:52;;;;;;;0.80;0.30;;;2.00;99.90;;;;;;20965526;28;20025;-60
2023/01/13 02:25:57;;;;;;;0.63;0.20;;;1.50;99.90;;;;;;20999202;28;20024;-60
2023/01/13 02:36:29;;;;;;;2.33;0.20;;;1.30;99.90;;;;;;20981557;28;20079;-60
2023/01/13 02:47:06;;;;;;;0.50;0.10;;;1.20;99.90;;;;;;20913961;28;20045;-60
2023/01/13 02:57:10;;;;;;;0.35;0.13;;;1.10;99.90;;;;;;20895189;28;20091;-60
2023/01/13 03:07:38;;;;;;;0.47;0.17;;;0.90;99.90;;;;;;20912617;28;20386;-60
2023/01/13 03:17:53;;;;;;;0.50;0.10;;;0.70;99.90;;;;;;20933554;28;20378;-60
2023/01/13 03:28:09;;;;;;;0.47;0.15;;;0.50;99.90;;;;;;20994661;28;20389;-60
2023/01/13 03:38:17;;;;;;;0.57;0.20;;;0.40;99.90;;;;;;20940661;28;20079;-60
2023/01/13 03:48:21;;;;;;;0.55;0.10;;;0.30;99.90;;;;;;20918863;28;20029;-59
2023/01/13 03:58:32;;;;;;;1.23;0.30;;;0.20;99.90;;;;;;20933939;28;20049;-60
2023/01/13 04:08:36;;;;;;;0.90;0.30;;;0.20;99.90;;;;;;20960372;28;20020;-60
2023/01/13 04:18:38;;;;;;;0.35;0.13;;;0.30;99.90;;;;;;20959739;28;20091;-60
2023/01/13 04:28:40;;;;;;;0.30;0.10;;;0.30;99.90;;;;;;20906202;28;20090;-60
2023/01/13 04:38:42;;;;;;;1.35;0.10;;;0.50;99.90;;;;;;20904603;28;20029;-60
2023/01/13 04:48:43;;;;;;;0.85;0.10;;;0.90;99.90;;;;;;20886672;28;20044;-60
2023/01/13 04:58:45;;;;;;;0.47;0.20;;;1.10;99.90;;;;;;20903872;28;20545;-60
2023/01/13 05:08:46;;;;;;;0.20;0.10;;;1.10;99.90;;;;;;20902680;28;20037;-60
2023/01/13 05:18:48;;;;;;;0.45;0.13;;;1.10;99.90;;;;;;20902266;28;20356;-60
2023/01/13 05:28:49;;;;;;;0.20;0.10;;;1.00;99.90;;;;;;20898888;28;20025;-60
2023/01/13 05:38:51;;;;;;;0.73;0.10;;;1.00;99.90;;;;;;20901607;28;20033;-60
2023/01/13 05:48:53;;;;;;;1.20;0.50;;;0.80;99.90;;;;;;20901340;28;20234;-60
2023/01/13 05:58:54;;;;;;;0.60;0.20;;;0.80;99.90;;;;;;20902304;28;20049;-60
2023/01/13 06:08:56;;;;;;;0.40;0.20;;;0.70;99.90;;;;;;20897439;28;20036;-60
2023/01/13 06:18:57;;;;;;;0.82;0.25;;;0.40;99.90;;;;;;20932571;28;20082;-60
2023/01/13 06:28:59;;;;;;;0.73;0.43;;;0.30;99.90;;;;;;20903108;28;20048;-60
2023/01/13 06:39:03;;;;;;;1.40;0.70;;;0.30;99.90;;;;;;20942760;28;20410;-60
2023/01/13 06:49:04;;;;;;;1.67;0.80;;;0.40;99.90;;;;;;20946883;28;20359;-60
2023/01/13 06:59:06;;;;;;;1.48;0.70;;;0.50;99.90;;;;;;20932070;28;20053;-60
2023/01/13 07:09:08;;;;;;;1.98;0.82;;;0.50;99.90;;;;;;20986745;28;20028;-60
2023/01/13 07:19:10;;;;;;;2.20;0.40;;;0.50;99.90;;;;;;20994292;28;20040;-59
2023/01/13 07:29:12;;;;;;;2.28;0.65;;;0.60;99.90;;;;;;20993509;28;20040;-60
2023/01/13 07:39:14;;;;;;;2.05;1.08;;;0.80;99.90;;;;;;20930892;28;20032;-60
2023/01/13 07:49:16;;;;;;;2.28;0.70;;;0.80;99.90;;;;;;20874192;28;20110;-60
2023/01/13 07:59:17;;;;;;;1.40;0.60;;;0.90;99.90;;;;;;20908416;28;20049;-60
2023/01/13 08:09:19;;;;;;;4.18;1.10;;;1.20;99.90;;;;;;20907319;28;20387;-60
2023/01/13 08:19:20;;;;;;;3.95;1.00;;;1.50;99.90;;;;;;20941588;28;20024;-60
2023/01/13 08:29:22;;;;;;;3.53;1.35;;;1.90;99.90;;;;;;20989024;28;20063;-60
2023/01/13 08:39:24;;;;;;;2.83;1.30;;;2.10;99.90;;;;;;20912260;28;20053;-60
2023/01/13 08:49:26;;;;;;;2.97;0.82;;;2.30;99.90;;;;;;20904462;28;20140;-60
2023/01/13 08:59:27;;;;;;;4.38;0.90;;;2.50;99.90;;;;;;20902780;28;20041;-60
2023/01/13 09:09:29;;;;;;;1.30;0.63;;;2.80;99.90;;;;;;20901431;28;20036;-59
2023/01/13 09:19:31;;;;;;;3.35;0.77;;;3.00;99.90;;;;;;20929385;28;20494;-60
2023/01/13 09:29:32;;;;;;;4.15;1.00;;;3.10;99.90;;;;;;20902687;28;20037;-60
2023/01/13 09:39:35;;;;;;;4.00;1.00;;;3.20;99.90;;;;;;20933928;28;20044;-59
2023/01/13 09:49:40;;;;;;;2.95;1.10;;;3.30;99.90;;;;;;20939042;28;20493;-59
2023/01/13 09:59:43;;;;;;;5.70;1.50;;;3.30;99.90;;;;;;20915472;28;20049;-60
2023/01/13 10:09:51;;;;;;;3.92;1.10;;;3.40;99.90;;;;;;20907962;28;20033;-60
2023/01/13 10:20:18;;;;;;;3.35;0.93;;;3.40;99.90;;;;;;20916035;28;20033;-60
2023/01/13 10:30:30;;;;;;;3.33;1.20;;;3.50;99.90;;;;;;20915429;28;20437;-60
2023/01/13 10:40:31;;;;;;;5.68;1.40;;;3.90;99.90;;;;;;20914723;28;20079;-60
2023/01/13 10:50:35;;;;;;;5.80;1.75;;;4.00;99.90;;;;;;20914037;28;20037;-60
2023/01/13 11:00:37;;;;;;;4.50;1.73;;;4.30;99.90;;;;;;20912604;28;20037;-59
2023/01/13 11:10:45;;;;;;;5.30;1.88;;;4.60;99.90;;;;;;20912010;28;20029;-59
2023/01/13 11:20:50;;;;;;;5.28;1.60;;;4.80;99.90;;;;;;20892632;28;20094;-60
2023/01/13 11:30:59;;;;;;;5.45;2.08;;;4.90;99.90;;;;;;20910677;28;20162;-60
2023/01/13 11:41:12;;;;;;;2.95;1.50;;;4.80;99.90;;;;;;20910184;28;20044;-59
2023/01/13 11:51:28;;;;;;;4.85;1.35;;;4.90;99.90;;;;;;20909292;28;20083;-59
2023/01/13 12:01:44;;;;;;;5.57;1.60;;;4.90;99.90;;;;;;20849139;28;20090;-59
2023/01/13 12:12:18;;;;;;;2.35;1.38;;;4.80;99.90;;;;;;20990381;28;20059;-60
2023/01/13 12:22:28;;;;;;;5.60;1.70;;;4.60;99.90;;;;;;20989330;28;20028;-60
2023/01/13 12:32:36;;;;;;;2.88;1.60;;;4.60;99.90;;;;;;20988470;28;20024;-59
2023/01/13 12:53:33;;;;;;;4.32;1.60;;;4.10;99.90;;;;;;20904011;28;20339;-59
2023/01/13 13:03:35;;;;;;;3.42;1.80;;;4.60;99.90;;;;;;20930877;28;20048;-58
2023/01/13 13:13:47;;;;;;;3.75;2.30;;;5.30;99.90;;;;;;20986392;28;20394;-59
2023/01/13 13:23:56;;;;;;;6.03;2.67;;;5.60;99.90;;;;;;20904311;28;20049;-59
2023/01/13 13:34:14;;;;;;;4.15;2.47;;;5.40;99.90;;;;;;20901684;28;20095;-59
2023/01/13 13:54:43;;;;;;;4.28;2.30;;;4.70;99.90;;;;;;20918604;28;20351;-59
2023/01/13 14:04:44;;;;;;;3.47;1.77;;;4.20;99.90;;;;;;20916840;28;20061;-60
2023/01/13 14:14:47;;;;;;;2.55;1.35;;;4.10;99.90;;;;;;20917038;28;20428;-60
2023/01/13 14:24:54;;;;;;;5.45;1.85;;;4.10;99.90;;;;;;20996191;28;20037;-60
2023/01/13 14:34:56;;;;;;;4.13;1.90;;;4.10;99.90;;;;;;20989577;28;20029;-60
2023/01/13 14:44:58;;;;;;;4.82;2.08;;;3.60;99.90;;;;;;20914381;28;20037;-60
2023/01/13 14:55:09;;;;;;;2.67;1.40;;;3.30;99.90;;;;;;20912112;28;20045;-60
2023/01/13 15:05:17;;;;;;;3.00;1.90;;;3.10;99.90;;;;;;20912497;28;20037;-60
2023/01/13 15:15:49;;;;;;;4.28;1.50;;;3.00;99.90;;;;;;20911978;28;20437;-60
2023/01/13 15:25:51;;;;;;;4.03;1.60;;;2.50;99.90;;;;;;20879366;28;20091;-59
2023/01/13 15:35:53;;;;;;;2.25;1.35;;;1.80;99.90;;;;;;20942239;28;20052;-59
2023/01/13 15:56:23;;;;;;;5.23;0.90;;;0.70;99.90;;;;;;20909072;28;20055;-59
2023/01/13 16:06:31;;;;;;;1.98;1.00;;;0.30;99.90;;;;;;20904640;28;20374;-59
2023/01/13 16:16:32;;;;;;;5.25;1.60;;;0.20;99.90;;;;;;20901770;28;20071;-59
2023/01/13 16:26:36;;;;;;;7.93;2.85;;;0.00;99.90;;;;;;20929345;28;20037;-60
2023/01/13 16:36:38;;;;;;;3.92;2.28;;;0.00;99.90;;;;;;20937469;28;20036;-60
2023/01/13 16:46:39;;;;;;;2.15;1.20;;;0.10;99.90;;;;;;20917882;28;20028;-60
2023/01/13 16:56:41;;;;;;;2.67;1.00;;;0.00;99.90;;;;;;20943388;28;20041;-60
2023/01/13 17:07:02;;;;;;;1.70;0.82;;;-0.10;99.90;;;;;;20903180;28;20407;-59
2023/01/13 17:17:04;;;;;;;5.22;1.25;;;-0.20;99.90;;;;;;20902834;28;20040;-59
2023/01/13 17:27:06;;;;;;;4.25;1.05;;;-0.30;99.90;;;;;;20898042;28;20095;-60
2023/01/13 17:37:08;;;;;;;2.75;0.80;;;-0.40;99.90;;;;;;20912705;28;20037;-59
2023/01/13 17:47:10;;;;;;;2.75;0.93;;;-0.40;99.90;;;;;;20918729;28;20397;-59
2023/01/13 17:57:11;;;;;;;2.08;1.10;;;-0.50;99.90;;;;;;20951455;28;20057;-59
2023/01/13 18:07:14;;;;;;;2.28;0.80;;;-0.40;99.90;;;;;;20959158;28;20033;-59
2023/01/13 18:17:17;;;;;;;3.58;1.10;;;-0.40;99.90;;;;;;20983737;28;20039;-59
2023/01/13 18:27:26;;;;;;;3.22;1.00;;;-0.40;99.90;;;;;;20984597;28;20082;-59
2023/01/13 18:37:28;;;;;;;2.65;1.00;;;-0.40;99.90;;;;;;20968583;28;20033;-59
2023/01/13 18:47:32;;;;;;;1.88;0.60;;;0.00;99.90;;;;;;20914038;28;20093;-59
2023/01/13 18:57:38;;;;;;;3.53;0.80;;;0.20;99.90;;;;;;20913715;28;20925;-59
2023/01/13 19:07:42;;;;;;;3.80;1.00;;;1.40;99.90;;;;;;20912286;28;20397;-59
2023/01/13 19:17:44;;;;;;;3.67;1.20;;;0.70;99.90;;;;;;20911762;28;20478;-60
2023/01/13 19:27:46;;;;;;;2.53;0.90;;;0.30;99.90;;;;;;20911503;28;20048;-59
2023/01/13 19:37:48;;;;;;;2.10;0.60;;;0.10;99.90;;;;;;20942078;28;20037;-59
2023/01/13 19:47:50;;;;;;;3.55;1.20;;;-0.10;99.90;;;;;;20908467;28;20037;-59
2023/01/13 19:57:56;;;;;;;0.28;0.00;;;-0.30;99.90;;;;;;20909290;28;20568;-59
2023/01/13 20:07:57;;;;;;;0.40;0.08;;;0.20;99.90;;;;;;20907757;28;20474;-60
2023/01/13 20:17:59;;;;;;;1.55;0.20;;;0.70;99.90;;;;;;20931390;28;20543;-59
2023/01/13 20:28:01;;;;;;;1.25;0.10;;;1.10;99.90;;;;;;20971442;28;20389;-59
2023/01/13 20:38:02;;;;;;;0.45;0.00;;;1.70;99.90;;;;;;20955686;28;20032;-59
2023/01/13 20:48:04;;;;;;;2.00;0.80;;;1.30;99.90;;;;;;20929218;28;20047;-59
2023/01/13 20:58:06;;;;;;;0.20;0.10;;;1.30;99.90;;;;;;20986166;28;20085;-59
2023/01/13 21:08:07;;;;;;;1.90;0.20;;;1.30;99.90;;;;;;20985870;28;20037;-59
2023/01/13 21:28:33;;;;;;;0.20;0.00;;;1.40;99.90;;;;;;20820752;28;20079;-59
2023/01/13 21:38:34;;;;;;;4.53;0.75;;;1.20;99.90;;;;;;20922214;28;20036;-59
2023/01/13 21:48:36;;;;;;;1.73;0.10;;;1.10;99.90;;;;;;20902100;28;20045;-60
2023/01/13 21:58:38;;;;;;;0.10;0.00;;;0.90;99.90;;;;;;20901626;28;20030;-59
2023/01/13 22:08:40;;;;;;;1.65;0.05;;;0.70;99.90;;;;;;20935812;28;20041;-59
2023/01/13 22:18:42;;;;;;;0.28;0.05;;;0.70;99.90;;;;;;20895015;28;20070;-60
2023/01/13 22:28:43;;;;;;;0.10;0.00;;;0.50;99.90;;;;;;20884538;28;20083;-59
2023/01/13 22:38:45;;;;;;;0.00;0.00;;;0.10;99.90;;;;;;20919448;28;20064;-60
2023/01/13 22:48:47;;;;;;;0.15;0.00;;;-0.10;99.90;;;;;;20914545;28;20482;-59
2023/01/13 22:58:53;;;;;;;0.70;0.10;;;-0.20;99.90;;;;;;20913872;28;20103;-59
2023/01/13 23:08:55;;;;;;;1.75;0.10;;;0.00;99.90;;;;;;20911951;28;20036;-59
2023/01/13 23:18:56;;;;;;;0.28;0.00;;;0.50;99.90;;;;;;20942572;28;20032;-60
2023/01/13 23:29:04;;;;;;;0.08;0.00;;;0.50;99.90;;;;;;20994180;28;20036;-59
2023/01/13 23:39:07;;;;;;;0.00;0.00;;;0.20;99.90;;;;;;20950602;28;20098;-60
2023/01/13 23:49:08;;;;;;;0.17;0.00;;;0.30;99.90;;;;;;20909323;28;20107;-60
2023/01/13 23:59:10;;;;;;;0.10;0.00;;;0.40;99.90;;;;;;20908706;28;20033;-60
